Time;durP1;ratioP1;P1;durP2;ratioP2;P2;SDS_P1;SDS_P2;PMS_P1;PMS_P2;Temp;Humidity;BMP_temperature;BMP_pressure;BME280_temperature;BME280_humidity;BME280_pressure;Samples;Min_cycle;Max_cycle;Signal;HPM_P1;HPM_P2
2023/10/12 00:00:24;;;;;;;8.73;3.83;;;20.10;99.90;;;;;;5051426;28;20216;-52
2023/10/12 00:02:47;;;;;;;10.00;3.37;;;20.10;99.90;;;;;;5053012;28;20210;-52
2023/10/12 00:05:17;;;;;;;7.30;3.90;;;20.10;99.90;;;;;;5054263;28;20742;-53
2023/10/12 00:07:45;;;;;;;7.83;4.20;;;20.20;99.90;;;;;;5051306;28;20554;-53
2023/10/12 00:12:47;;;;;;;6.67;3.57;;;20.30;99.90;;;;;;5049939;28;20194;-53
2023/10/12 00:17:51;;;;;;;9.80;3.67;;;20.30;99.90;;;;;;5051804;28;20220;-53
2023/10/12 00:22:58;;;;;;;8.23;3.30;;;20.40;99.90;;;;;;5052070;28;20252;-53
2023/10/12 00:25:25;;;;;;;8.67;3.70;;;20.40;99.90;;;;;;5052663;28;20220;-53
2023/10/12 00:27:51;;;;;;;5.60;3.77;;;20.30;99.90;;;;;;5054137;28;20204;-52
2023/10/12 00:30:17;;;;;;;8.77;3.50;;;20.30;99.90;;;;;;5053868;28;20803;-53
2023/10/12 00:32:43;;;;;;;8.13;4.17;;;20.30;99.90;;;;;;5053440;28;20200;-53
2023/10/12 00:35:14;;;;;;;12.30;3.93;;;20.50;99.90;;;;;;5053890;28;20200;-53
2023/10/12 00:37:41;;;;;;;8.77;3.57;;;20.40;99.90;;;;;;5049710;28;20286;-53
2023/10/12 00:40:30;;;;;;;5.07;3.20;;;20.40;99.90;;;;;;5053337;28;20218;-53
2023/10/12 00:42:59;;;;;;;10.67;4.10;;;20.30;99.90;;;;;;5053106;28;20325;-53
2023/10/12 00:45:29;;;;;;;9.40;4.00;;;20.20;99.90;;;;;;5048616;28;20798;-53
2023/10/12 00:48:00;;;;;;;9.03;4.20;;;20.30;99.90;;;;;;5052955;28;20206;-53
2023/10/12 00:50:29;;;;;;;9.27;3.70;;;20.30;99.90;;;;;;5053635;28;20276;-53
2023/10/12 00:52:55;;;;;;;11.30;3.60;;;20.20;99.90;;;;;;5053220;28;20240;-52
2023/10/12 00:55:34;;;;;;;6.30;3.57;;;20.20;99.90;;;;;;5050149;28;20287;-52
2023/10/12 00:58:05;;;;;;;9.10;3.77;;;20.20;99.90;;;;;;5051620;28;20199;-53
2023/10/12 01:00:43;;;;;;;9.03;3.17;;;20.20;99.90;;;;;;5052316;28;20191;-53
2023/10/12 01:03:45;;;;;;;7.33;3.73;;;20.30;99.90;;;;;;5049201;28;20220;-53
2023/10/12 01:08:47;;;;;;;6.83;3.50;;;20.30;99.90;;;;;;5048883;28;20216;-53
2023/10/12 01:11:21;;;;;;;5.03;2.77;;;20.20;99.90;;;;;;5046239;28;20248;-53
2023/10/12 01:14:11;;;;;;;4.40;2.90;;;20.10;99.90;;;;;;5053245;28;20192;-53
2023/10/12 01:16:54;;;;;;;6.37;3.50;;;20.00;99.90;;;;;;5045899;28;20281;-53
2023/10/12 01:19:23;;;;;;;7.13;3.20;;;20.00;99.90;;;;;;5051888;28;20701;-53
2023/10/12 01:21:54;;;;;;;10.80;3.70;;;20.10;99.90;;;;;;5053020;28;20745;-53
2023/10/12 01:24:29;;;;;;;6.43;3.70;;;20.00;99.90;;;;;;5052077;28;20192;-52
2023/10/12 01:26:55;;;;;;;5.87;3.83;;;19.90;99.90;;;;;;5053183;28;20199;-53
2023/10/12 01:29:20;;;;;;;9.97;4.00;;;19.80;99.90;;;;;;5051855;28;20224;-52
2023/10/12 01:32:06;;;;;;;5.33;3.40;;;19.90;99.90;;;;;;5050100;28;20211;-53
2023/10/12 01:34:36;;;;;;;9.30;4.90;;;19.80;99.90;;;;;;5051082;28;20671;-53
2023/10/12 01:37:04;;;;;;;9.53;3.83;;;19.80;99.90;;;;;;5053149;28;20191;-56
2023/10/12 01:39:31;;;;;;;12.77;3.77;;;19.70;99.90;;;;;;5031719;28;20218;-57
2023/10/12 01:41:57;;;;;;;9.47;4.03;;;19.70;99.90;;;;;;5048191;28;20203;-57
2023/10/12 01:44:23;;;;;;;6.80;3.40;;;19.70;99.90;;;;;;5044815;28;20188;-54
2023/10/12 01:46:49;;;;;;;7.23;3.67;;;19.60;99.90;;;;;;5051896;28;20240;-52
2023/10/12 01:49:18;;;;;;;8.17;4.10;;;19.70;99.90;;;;;;5049119;28;20797;-53
2023/10/12 01:51:46;;;;;;;9.13;4.43;;;19.50;99.90;;;;;;5034282;28;20744;-52
2023/10/12 01:54:22;;;;;;;9.10;3.70;;;19.50;99.90;;;;;;5048423;28;20192;-52
2023/10/12 01:56:55;;;;;;;7.43;4.77;;;19.50;99.90;;;;;;5052248;28;20218;-52
2023/10/12 01:59:21;;;;;;;11.57;3.60;;;19.50;99.90;;;;;;5051730;28;21128;-52
2023/10/12 02:01:53;;;;;;;11.23;4.90;;;19.40;99.90;;;;;;5033721;28;20200;-53
2023/10/12 02:04:21;;;;;;;9.10;4.57;;;19.40;99.90;;;;;;5052248;28;20249;-52
2023/10/12 02:06:47;;;;;;;8.17;4.37;;;19.30;99.90;;;;;;5051642;28;20215;-52
2023/10/12 02:09:15;;;;;;;10.93;4.47;;;19.30;99.90;;;;;;5050441;28;20332;-52
2023/10/12 02:11:45;;;;;;;8.17;3.80;;;19.30;99.90;;;;;;5026908;28;20226;-52
2023/10/12 02:14:12;;;;;;;10.23;4.13;;;19.30;99.90;;;;;;5044568;28;20198;-52
2023/10/12 02:16:38;;;;;;;7.97;4.17;;;19.30;99.90;;;;;;5045479;28;20771;-52
2023/10/12 02:19:19;;;;;;;11.00;5.33;;;19.30;99.90;;;;;;5046960;28;20196;-52
2023/10/12 02:21:46;;;;;;;9.07;3.90;;;19.30;99.90;;;;;;5049674;28;20735;-53
2023/10/12 02:24:13;;;;;;;8.63;4.77;;;19.20;99.90;;;;;;5050708;28;20759;-52
2023/10/12 02:29:17;;;;;;;10.67;4.60;;;19.10;99.90;;;;;;5048974;28;20226;-52
2023/10/12 02:34:16;;;;;;;7.37;4.30;;;19.20;99.90;;;;;;5048785;28;20200;-53
2023/10/12 02:36:59;;;;;;;8.23;4.70;;;19.10;99.90;;;;;;5047573;28;20203;-54
2023/10/12 02:39:26;;;;;;;8.00;4.17;;;19.10;99.90;;;;;;5045672;28;20197;-53
2023/10/12 02:42:10;;;;;;;12.47;4.67;;;19.00;99.90;;;;;;5049443;28;20197;-53
2023/10/12 02:47:22;;;;;;;7.57;4.37;;;19.00;99.90;;;;;;5043522;28;20776;-53
2023/10/12 02:52:30;;;;;;;10.00;4.30;;;19.00;99.90;;;;;;5048528;28;20216;-58
2023/10/12 02:54:56;;;;;;;10.40;4.30;;;18.90;99.90;;;;;;5027255;28;20196;-57
2023/10/12 02:57:26;;;;;;;8.93;5.30;;;18.90;99.90;;;;;;5049811;28;20254;-53
2023/10/12 03:00:05;;;;;;;6.63;4.43;;;18.80;99.90;;;;;;5045640;28;20195;-53
2023/10/12 03:02:32;;;;;;;9.30;4.33;;;18.80;99.90;;;;;;5045375;28;20222;-53
2023/10/12 03:05:06;;;;;;;14.43;4.87;;;18.70;99.90;;;;;;5051603;28;20243;-53
2023/10/12 03:07:35;;;;;;;7.67;4.53;;;18.70;99.90;;;;;;5032785;28;20205;-53
2023/10/12 03:10:05;;;;;;;11.10;4.23;;;18.60;99.90;;;;;;5050355;28;20244;-53
2023/10/12 03:12:34;;;;;;;9.40;4.60;;;18.50;99.90;;;;;;5050920;28;20210;-53
2023/10/12 03:15:03;;;;;;;12.00;5.57;;;18.50;99.90;;;;;;5047185;28;20195;-53
2023/10/12 03:17:29;;;;;;;11.07;5.43;;;18.30;99.90;;;;;;5048227;28;20210;-53
2023/10/12 03:20:15;;;;;;;11.80;4.70;;;18.10;99.90;;;;;;5028751;28;20211;-54
2023/10/12 03:22:43;;;;;;;10.30;5.63;;;18.10;99.90;;;;;;5050291;28;20194;-53
2023/10/12 03:25:36;;;;;;;15.77;4.77;;;18.00;99.90;;;;;;5049442;28;20206;-57
2023/10/12 03:28:11;;;;;;;13.20;4.80;;;18.00;99.90;;;;;;5048963;28;20241;-57
2023/10/12 03:30:43;;;;;;;10.20;5.30;;;17.90;99.90;;;;;;5048558;28;20898;-55
2023/10/12 03:33:14;;;;;;;11.07;4.77;;;17.90;99.90;;;;;;5052223;28;20221;-53
2023/10/12 03:35:52;;;;;;;14.20;6.23;;;17.70;99.90;;;;;;5054655;28;20209;-54
2023/10/12 03:38:19;;;;;;;8.87;4.93;;;17.60;99.90;;;;;;5053985;28;20198;-54
2023/10/12 03:43:20;;;;;;;14.63;5.67;;;17.60;99.90;;;;;;5054145;28;20203;-53
2023/10/12 03:48:47;;;;;;;10.00;5.53;;;17.50;99.90;;;;;;5051577;28;20219;-52
2023/10/12 03:51:25;;;;;;;11.37;5.57;;;17.50;99.90;;;;;;5053872;28;20301;-52
2023/10/12 03:53:57;;;;;;;12.53;6.70;;;17.40;99.90;;;;;;5032201;28;20192;-52
2023/10/12 03:56:28;;;;;;;13.13;6.93;;;17.30;99.90;;;;;;5054445;28;20629;-51
2023/10/12 03:58:58;;;;;;;9.77;6.23;;;17.20;99.90;;;;;;5053728;28;20199;-52
2023/10/12 04:01:31;;;;;;;9.10;5.57;;;17.10;99.90;;;;;;5054113;28;20281;-53
2023/10/12 04:04:19;;;;;;;12.87;6.70;;;16.90;99.90;;;;;;5054374;28;20594;-52
2023/10/12 04:09:31;;;;;;;12.97;6.83;;;16.60;99.90;;;;;;5054344;28;20292;-52
2023/10/12 04:12:29;;;;;;;12.50;7.17;;;16.60;99.90;;;;;;5053756;28;20226;-52
2023/10/12 04:14:55;;;;;;;10.70;6.63;;;16.60;99.90;;;;;;5051271;28;20197;-52
2023/10/12 04:25:14;;;;;;;15.37;6.00;;;16.80;99.90;;;;;;5045825;28;20193;-53
2023/10/12 04:30:32;;;;;;;8.27;4.70;;;16.50;99.90;;;;;;5021525;28;20283;-53
2023/10/12 04:33:11;;;;;;;6.83;4.17;;;16.30;99.90;;;;;;5052582;28;20198;-52
2023/10/12 04:38:22;;;;;;;10.20;4.43;;;16.20;99.90;;;;;;5049666;28;20206;-53
2023/10/12 04:43:36;;;;;;;6.80;3.70;;;16.00;99.90;;;;;;5051466;28;20289;-53
2023/10/12 04:46:47;;;;;;;5.50;3.23;;;15.90;99.90;;;;;;5054461;28;20736;-52
2023/10/12 04:49:12;;;;;;;5.40;3.27;;;15.80;99.90;;;;;;5059828;23;20588;-53
2023/10/12 04:51:40;;;;;;;6.73;3.60;;;15.60;99.90;;;;;;4990277;28;20204;-53
2023/10/12 04:54:25;;;;;;;6.17;3.60;;;15.70;99.90;;;;;;4989906;28;20204;-53
2023/10/12 04:56:56;;;;;;;4.63;3.63;;;15.70;99.90;;;;;;4993536;28;20235;-53
2023/10/12 04:59:26;;;;;;;4.93;3.50;;;15.80;99.90;;;;;;4993852;28;20196;-53
2023/10/12 05:02:15;;;;;;;5.80;3.33;;;15.70;99.90;;;;;;4989738;28;20205;-53
2023/10/12 05:09:37;;;;;;;6.47;3.40;;;15.70;99.90;;;;;;4992152;28;20298;-54
2023/10/12 05:12:03;;;;;;;5.20;3.23;;;15.80;99.90;;;;;;4975842;28;20678;-53
2023/10/12 05:14:30;;;;;;;5.73;3.43;;;16.00;99.90;;;;;;4993237;28;20234;-53
2023/10/12 05:16:55;;;;;;;7.37;4.27;;;16.00;99.90;;;;;;4974513;28;20358;-52
2023/10/12 05:19:21;;;;;;;5.43;3.50;;;16.00;99.90;;;;;;4985476;28;20773;-52
2023/10/12 05:21:46;;;;;;;5.33;2.80;;;16.00;99.90;;;;;;4993107;28;20324;-53
2023/10/12 05:24:12;;;;;;;4.07;3.43;;;15.80;99.90;;;;;;4975602;28;20207;-52
2023/10/12 05:26:38;;;;;;;5.90;2.83;;;15.80;99.90;;;;;;4990730;28;20617;-53
2023/10/12 05:31:58;;;;;;;4.20;3.00;;;15.80;99.90;;;;;;4993197;28;20258;-54
2023/10/12 05:34:34;;;;;;;4.47;3.20;;;15.70;99.90;;;;;;4993719;28;20323;-59
2023/10/12 05:37:16;;;;;;;4.13;3.43;;;15.80;99.90;;;;;;4988176;28;20199;-53
2023/10/12 05:39:46;;;;;;;4.30;3.07;;;15.80;99.90;;;;;;4987426;28;20196;-52
2023/10/12 05:42:15;;;;;;;8.77;4.13;;;15.80;99.90;;;;;;4991004;28;20208;-52
2023/10/12 05:44:42;;;;;;;7.63;4.77;;;15.80;99.90;;;;;;4973263;28;20204;-53
2023/10/12 05:47:11;;;;;;;7.27;4.07;;;15.80;99.90;;;;;;4989292;28;20378;-52
2023/10/12 05:49:41;;;;;;;5.63;3.70;;;15.70;99.90;;;;;;4991087;28;20228;-53
2023/10/12 05:52:08;;;;;;;8.60;4.70;;;15.70;99.90;;;;;;4993398;28;20266;-53
2023/10/12 05:54:34;;;;;;;6.97;4.50;;;15.70;99.90;;;;;;4992563;28;20322;-58
2023/10/12 05:57:09;;;;;;;7.17;4.50;;;15.80;99.90;;;;;;4988509;28;20212;-58
2023/10/12 05:59:35;;;;;;;5.97;4.47;;;15.80;99.90;;;;;;4975194;28;20208;-57
2023/10/12 06:02:01;;;;;;;7.17;4.23;;;15.70;99.90;;;;;;4970617;28;20203;-52
2023/10/12 06:04:27;;;;;;;8.70;4.43;;;15.60;99.90;;;;;;4990398;28;20219;-53
2023/10/12 06:06:53;;;;;;;7.03;4.50;;;15.50;99.90;;;;;;4990345;28;20239;-53
2023/10/12 06:09:21;;;;;;;6.83;4.73;;;15.40;99.90;;;;;;4985743;28;20310;-52
2023/10/12 06:11:48;;;;;;;6.40;4.33;;;15.40;99.90;;;;;;4987838;28;20632;-53
2023/10/12 06:14:15;;;;;;;10.80;4.10;;;15.60;99.90;;;;;;4969797;28;20970;-52
2023/10/12 06:16:41;;;;;;;9.00;4.30;;;15.60;99.90;;;;;;4991586;28;20196;-53
2023/10/12 06:19:21;;;;;;;7.53;4.63;;;15.50;99.90;;;;;;4988619;28;20196;-53
2023/10/12 06:21:50;;;;;;;7.60;4.83;;;15.30;99.90;;;;;;4972055;28;20204;-52
2023/10/12 06:24:33;;;;;;;9.47;4.40;;;15.40;99.90;;;;;;4974115;28;21205;-52
2023/10/12 06:27:02;;;;;;;10.67;5.27;;;15.50;99.90;;;;;;4987351;28;20214;-53
2023/10/12 06:29:28;;;;;;;5.47;4.77;;;15.30;99.90;;;;;;4989664;28;20212;-52
2023/10/12 06:31:54;;;;;;;7.83;4.97;;;15.40;99.90;;;;;;4992581;28;20566;-53
2023/10/12 06:34:24;;;;;;;6.10;4.63;;;15.50;99.90;;;;;;4990793;28;20201;-53
2023/10/12 06:36:58;;;;;;;6.57;4.20;;;15.70;99.90;;;;;;4990549;28;20189;-53
2023/10/12 06:44:25;;;;;;;9.00;5.57;;;15.80;99.90;;;;;;4984930;28;20205;-59
2023/10/12 06:46:53;;;;;;;9.27;5.47;;;15.70;99.90;;;;;;4991228;28;20195;-59
2023/10/12 06:49:22;;;;;;;8.87;5.43;;;15.80;99.90;;;;;;4989551;28;20235;-58
2023/10/12 06:51:53;;;;;;;12.27;5.80;;;15.90;99.90;;;;;;4988864;28;20727;-57
2023/10/12 07:00:17;;;;;;;11.73;7.07;;;15.70;99.90;;;;;;4982985;28;20200;-61
2023/10/12 07:02:43;;;;;;;11.13;7.27;;;15.80;99.90;;;;;;4991712;28;20215;-59
2023/10/12 07:05:09;;;;;;;10.67;7.10;;;16.00;99.90;;;;;;4992072;28;20232;-57
2023/10/12 07:07:41;;;;;;;12.50;8.57;;;16.00;99.90;;;;;;4991871;28;20290;-63
2023/10/12 07:12:49;;;;;;;12.13;7.73;;;16.00;99.90;;;;;;4988960;28;20196;-59
2023/10/12 07:15:19;;;;;;;11.13;7.43;;;15.90;99.90;;;;;;4987999;28;20203;-59
2023/10/12 07:17:51;;;;;;;12.73;8.10;;;15.70;99.90;;;;;;4989670;28;20311;-59
2023/10/12 07:20:27;;;;;;;9.97;7.77;;;15.80;99.90;;;;;;4988329;28;20843;-59
2023/10/12 07:22:52;;;;;;;16.40;8.07;;;16.00;99.90;;;;;;4972527;28;20211;-59
2023/10/12 07:25:22;;;;;;;14.50;8.50;;;16.10;99.90;;;;;;4991600;28;20191;-58
2023/10/12 07:28:00;;;;;;;11.97;8.90;;;16.00;99.90;;;;;;4990094;28;20192;-57
2023/10/12 07:30:36;;;;;;;12.67;7.83;;;15.90;99.90;;;;;;4989368;28;20235;-63
2023/10/12 07:33:07;;;;;;;10.03;8.30;;;15.90;99.90;;;;;;4989900;28;20267;-60
2023/10/12 07:35:38;;;;;;;13.57;9.20;;;15.70;99.90;;;;;;4987038;28;20306;-60
2023/10/12 07:38:28;;;;;;;12.67;8.43;;;15.70;99.90;;;;;;4988600;28;20852;-56
2023/10/12 07:40:56;;;;;;;15.50;9.10;;;15.60;99.90;;;;;;4988589;28;20196;-63
2023/10/12 07:43:24;;;;;;;12.20;8.30;;;15.70;99.90;;;;;;4989547;28;20238;-63
2023/10/12 07:45:50;;;;;;;9.60;7.30;;;15.70;99.90;;;;;;4969805;28;20255;-59
2023/10/12 07:48:39;;;;;;;4.20;2.17;;;15.70;99.90;;;;;;4987658;28;20216;-59
2023/10/12 07:51:18;;;;;;;1.83;1.50;;;15.50;99.90;;;;;;4989085;28;20204;-57
2023/10/12 07:53:56;;;;;;;2.50;1.33;;;15.30;99.90;;;;;;4977681;28;20200;-57
2023/10/12 07:56:22;;;;;;;6.77;2.00;;;15.00;99.90;;;;;;4989181;28;20184;-57
2023/10/12 07:58:57;;;;;;;2.40;1.03;;;14.70;99.90;;;;;;4990494;28;20192;-57
2023/10/12 08:01:39;;;;;;;2.57;1.20;;;14.60;99.90;;;;;;4967351;28;20203;-56
2023/10/12 08:04:28;;;;;;;5.50;1.80;;;14.50;99.90;;;;;;4988575;28;20196;-56
2023/10/12 08:06:53;;;;;;;6.13;1.77;;;14.30;99.90;;;;;;4986552;28;20199;-56
2023/10/12 08:11:51;;;;;;;3.83;1.97;;;14.00;99.90;;;;;;4990682;28;20714;-58
2023/10/12 08:14:39;;;;;;;5.93;1.77;;;14.00;99.90;;;;;;4986569;28;20204;-57
2023/10/12 08:19:56;;;;;;;5.27;1.57;;;14.10;99.90;;;;;;4985448;28;20474;-57
2023/10/12 08:22:31;;;;;;;6.60;2.13;;;13.90;99.90;;;;;;4994470;28;20207;-55
2023/10/12 08:24:58;;;;;;;9.47;1.83;;;13.90;99.90;;;;;;4992456;28;20208;-64
2023/10/12 08:27:25;;;;;;;9.63;1.80;;;14.00;99.90;;;;;;4993842;28;20242;-55
2023/10/12 08:37:26;;;;;;;10.30;1.97;;;13.60;99.90;;;;;;4994767;28;20196;-56
2023/10/12 08:42:55;;;;;;;4.67;1.90;;;13.60;99.90;;;;;;4994570;28;20196;-61
2023/10/12 08:45:23;;;;;;;6.87;2.60;;;13.50;99.90;;;;;;4989108;28;20192;-55
2023/10/12 08:47:53;;;;;;;6.43;2.17;;;13.50;99.90;;;;;;4993913;28;20203;-57
2023/10/12 08:52:51;;;;;;;6.63;1.63;;;13.60;99.90;;;;;;4987776;28;20216;-54
2023/10/12 08:55:24;;;;;;;5.87;1.50;;;13.60;99.90;;;;;;4992355;28;20933;-55
2023/10/12 08:58:31;;;;;;;8.43;2.37;;;13.90;99.90;;;;;;4986417;28;20619;-65
2023/10/12 09:03:29;;;;;;;7.43;1.70;;;14.00;99.90;;;;;;4993795;28;20249;-65
2023/10/12 09:05:55;;;;;;;5.97;2.57;;;14.00;99.90;;;;;;4992922;28;20208;-56
2023/10/12 09:11:02;;;;;;;6.60;1.77;;;14.20;99.90;;;;;;4993929;28;20207;-57
2023/10/12 09:13:30;;;;;;;7.47;1.43;;;14.10;99.90;;;;;;4988469;28;20196;-57
2023/10/12 09:16:00;;;;;;;5.37;1.87;;;13.90;99.90;;;;;;4984565;28;20208;-57
2023/10/12 09:18:33;;;;;;;8.37;1.93;;;13.90;99.90;;;;;;4993365;28;20200;-57
2023/10/12 09:23:33;;;;;;;5.07;1.40;;;14.10;99.90;;;;;;4989838;28;20196;-59
2023/10/12 09:31:48;;;;;;;10.60;2.63;;;13.90;99.90;;;;;;4989785;28;20641;-57
2023/10/12 09:36:37;;;;;;;6.37;1.50;;;13.80;99.90;;;;;;4987886;28;20286;-57
2023/10/12 09:39:03;;;;;;;9.47;2.60;;;13.90;99.90;;;;;;4991980;28;20208;-57
2023/10/12 09:41:34;;;;;;;2.53;1.90;;;14.00;99.90;;;;;;4993694;28;20235;-57
2023/10/12 09:44:06;;;;;;;7.50;2.40;;;13.90;99.90;;;;;;4984000;28;20341;-55
2023/10/12 09:46:33;;;;;;;6.30;1.83;;;14.10;99.90;;;;;;4993318;28;20392;-53
2023/10/12 09:49:08;;;;;;;6.83;1.80;;;14.20;99.90;;;;;;4991209;28;20238;-56
2023/10/12 09:51:36;;;;;;;6.97;2.10;;;14.50;99.90;;;;;;4992854;28;20212;-55
2023/10/12 09:54:15;;;;;;;6.07;1.67;;;14.20;99.90;;;;;;4993160;28;20208;-55
2023/10/12 09:56:46;;;;;;;7.30;1.73;;;14.20;99.90;;;;;;4974656;28;20204;-55
2023/10/12 09:59:18;;;;;;;6.53;2.37;;;14.20;99.90;;;;;;4991138;28;20843;-58
2023/10/12 10:01:50;;;;;;;7.90;2.23;;;14.20;99.90;;;;;;4973629;28;20482;-68
2023/10/12 10:04:27;;;;;;;5.20;1.93;;;14.20;99.90;;;;;;4990340;28;20220;-57
2023/10/12 10:07:14;;;;;;;7.40;2.20;;;14.10;99.90;;;;;;4992431;28;20330;-57
2023/10/12 10:09:54;;;;;;;6.17;2.63;;;14.20;99.90;;;;;;4993250;28;20278;-62
2023/10/12 10:12:22;;;;;;;12.33;2.33;;;14.30;99.90;;;;;;4989233;28;20203;-58
2023/10/12 10:14:54;;;;;;;8.43;2.53;;;14.20;99.90;;;;;;4987355;28;20196;-58
2023/10/12 10:17:24;;;;;;;3.83;1.37;;;14.30;99.90;;;;;;4992349;28;20192;-57
2023/10/12 10:23:01;;;;;;;10.40;2.37;;;14.40;99.90;;;;;;4985413;28;20220;-57
2023/10/12 10:25:28;;;;;;;3.87;1.97;;;14.30;99.90;;;;;;4992876;28;20666;-57
2023/10/12 10:27:58;;;;;;;9.30;2.53;;;14.30;99.90;;;;;;4991022;28;20200;-59
2023/10/12 10:30:36;;;;;;;8.63;2.00;;;14.20;99.90;;;;;;4992278;28;20227;-57
2023/10/12 10:33:12;;;;;;;7.37;2.07;;;14.20;99.90;;;;;;4990796;28;20208;-56
2023/10/12 10:35:58;;;;;;;6.33;1.93;;;14.40;99.90;;;;;;4974675;28;20204;-56
2023/10/12 10:38:34;;;;;;;8.87;2.47;;;14.30;99.90;;;;;;4992191;28;20414;-57
2023/10/12 10:41:07;;;;;;;6.60;1.93;;;14.40;99.90;;;;;;4992176;28;20200;-56
2023/10/12 10:43:37;;;;;;;9.77;2.27;;;14.40;99.90;;;;;;4989287;28;20193;-58
2023/10/12 10:46:16;;;;;;;4.47;2.17;;;14.30;99.90;;;;;;4990766;28;20286;-56
2023/10/12 10:48:49;;;;;;;8.33;2.57;;;14.20;99.90;;;;;;4991768;28;20611;-58
2023/10/12 10:51:19;;;;;;;9.43;2.03;;;14.30;99.90;;;;;;4987994;28;20311;-57
2023/10/12 10:53:54;;;;;;;8.37;2.23;;;14.50;99.90;;;;;;4988672;28;20686;-57
2023/10/12 10:56:34;;;;;;;6.37;2.10;;;14.70;99.90;;;;;;4991840;28;20915;-57
2023/10/12 10:59:06;;;;;;;7.13;2.27;;;14.60;99.90;;;;;;4973267;28;21042;-57
2023/10/12 11:01:31;;;;;;;7.03;2.03;;;14.70;99.90;;;;;;4992011;28;20266;-57
2023/10/12 11:03:58;;;;;;;4.27;2.23;;;14.60;99.90;;;;;;4973935;28;20204;-57
2023/10/12 11:06:27;;;;;;;7.30;2.30;;;14.70;99.90;;;;;;4991928;28;20199;-57
2023/10/12 11:09:06;;;;;;;5.97;1.93;;;15.00;99.90;;;;;;4985841;28;20226;-55
2023/10/12 11:11:37;;;;;;;7.33;2.10;;;15.00;99.90;;;;;;4991145;28;20203;-57
2023/10/12 11:14:05;;;;;;;7.90;2.13;;;15.00;99.90;;;;;;4988620;28;20651;-55
2023/10/12 11:16:33;;;;;;;7.17;2.27;;;14.90;99.90;;;;;;4973455;28;20682;-55
2023/10/12 11:18:59;;;;;;;9.57;2.33;;;15.00;99.90;;;;;;4991128;28;20469;-55
2023/10/12 11:21:26;;;;;;;8.00;2.40;;;15.10;99.90;;;;;;4990280;28;20267;-59
2023/10/12 11:24:01;;;;;;;6.33;1.77;;;15.10;99.90;;;;;;4988784;28;20212;-57
2023/10/12 11:26:26;;;;;;;10.43;3.00;;;15.10;99.90;;;;;;4991119;28;20206;-56
2023/10/12 11:29:04;;;;;;;7.37;2.23;;;15.30;99.90;;;;;;4991560;28;20602;-55
2023/10/12 11:31:33;;;;;;;7.03;2.13;;;15.30;99.90;;;;;;4989051;28;20227;-55
2023/10/12 11:33:59;;;;;;;9.13;2.63;;;15.30;99.90;;;;;;4989701;28;20745;-69
2023/10/12 11:36:26;;;;;;;15.23;1.97;;;15.30;99.90;;;;;;4973291;28;20215;-55
2023/10/12 11:38:59;;;;;;;8.23;2.60;;;15.40;99.90;;;;;;4987915;28;20239;-56
2023/10/12 11:41:25;;;;;;;11.33;2.53;;;15.50;99.90;;;;;;4974416;28;20200;-56
2023/10/12 11:43:53;;;;;;;6.80;2.10;;;15.40;99.90;;;;;;4985634;28;20870;-56
2023/10/12 11:46:20;;;;;;;6.53;2.00;;;15.60;99.90;;;;;;4987405;28;20192;-56
2023/10/12 11:49:07;;;;;;;7.93;1.80;;;15.60;99.90;;;;;;4991388;28;20311;-57
2023/10/12 11:51:40;;;;;;;6.77;2.50;;;15.70;99.90;;;;;;4991333;28;20466;-55
2023/10/12 11:54:06;;;;;;;3.67;2.07;;;15.70;99.90;;;;;;4986446;28;20288;-59
2023/10/12 11:56:33;;;;;;;9.53;2.07;;;15.90;99.90;;;;;;4992635;28;20211;-54
2023/10/12 11:58:58;;;;;;;6.57;2.03;;;16.10;99.90;;;;;;4993781;28;20200;-59
2023/10/12 12:01:27;;;;;;;7.63;2.67;;;16.40;99.90;;;;;;4993421;28;20200;-59
2023/10/12 12:03:54;;;;;;;8.07;2.30;;;16.60;99.90;;;;;;4989988;28;20208;-64
2023/10/12 12:06:21;;;;;;;10.33;2.50;;;16.50;99.90;;;;;;4994978;28;20218;-66
2023/10/12 12:08:48;;;;;;;9.00;3.17;;;16.40;99.90;;;;;;4995963;28;20223;-68
2023/10/12 12:11:26;;;;;;;8.57;2.67;;;16.50;99.90;;;;;;4976631;28;20299;-67
2023/10/12 12:13:54;;;;;;;6.97;1.80;;;16.30;99.90;;;;;;4974333;28;20191;-57
2023/10/12 12:16:22;;;;;;;6.47;1.90;;;16.40;99.90;;;;;;4990318;28;20271;-57
2023/10/12 12:18:52;;;;;;;5.17;2.03;;;16.20;99.90;;;;;;4994838;28;20325;-57
2023/10/12 12:21:29;;;;;;;13.43;2.30;;;16.20;99.90;;;;;;4994881;28;20490;-56
2023/10/12 12:23:55;;;;;;;6.53;2.07;;;16.30;99.90;;;;;;4991836;28;20835;-57
2023/10/12 12:26:23;;;;;;;8.07;1.70;;;16.20;99.90;;;;;;4992054;28;20278;-57
2023/10/12 12:29:03;;;;;;;4.43;1.60;;;16.20;99.90;;;;;;4994330;28;20881;-58
2023/10/12 12:31:32;;;;;;;6.77;2.27;;;16.30;99.90;;;;;;4967179;28;20196;-58
2023/10/12 12:33:58;;;;;;;9.00;2.47;;;16.30;99.90;;;;;;4989202;28;20208;-56
2023/10/12 12:36:23;;;;;;;6.23;2.50;;;16.20;99.90;;;;;;4991039;28;20275;-56
2023/10/12 12:38:57;;;;;;;6.63;2.17;;;16.30;99.90;;;;;;4990537;28;20212;-57
2023/10/12 12:41:24;;;;;;;9.53;2.87;;;16.50;99.90;;;;;;4984531;28;20208;-57
2023/10/12 12:43:50;;;;;;;7.17;1.83;;;16.30;99.90;;;;;;4988284;28;20261;-57
2023/10/12 12:46:17;;;;;;;7.83;1.83;;;16.30;99.90;;;;;;4976945;28;20196;-57
2023/10/12 12:48:45;;;;;;;5.23;1.77;;;16.30;99.90;;;;;;4993907;28;20369;-58
2023/10/12 12:51:15;;;;;;;6.03;2.27;;;16.10;99.90;;;;;;4994523;28;20293;-58
2023/10/12 12:53:42;;;;;;;9.40;1.90;;;15.90;99.90;;;;;;4994307;28;20192;-57
2023/10/12 12:56:10;;;;;;;5.13;1.73;;;15.80;99.90;;;;;;4994572;28;20830;-57
2023/10/12 12:58:36;;;;;;;6.30;2.00;;;16.00;99.90;;;;;;4990336;28;20527;-58
2023/10/12 13:01:03;;;;;;;7.90;2.30;;;16.40;99.90;;;;;;4990211;28;20204;-56
2023/10/12 13:03:29;;;;;;;9.13;1.97;;;16.50;99.90;;;;;;4990175;28;20656;-57
2023/10/12 13:05:54;;;;;;;6.10;1.70;;;16.70;99.90;;;;;;4989813;28;20759;-57
2023/10/12 13:08:22;;;;;;;6.20;2.00;;;16.80;99.90;;;;;;4992502;28;20209;-58
2023/10/12 13:10:48;;;;;;;8.90;2.07;;;16.80;99.90;;;;;;4989640;28;20219;-57
2023/10/12 13:13:13;;;;;;;11.27;2.40;;;16.80;99.90;;;;;;4971896;28;20754;-57
2023/10/12 13:15:42;;;;;;;9.33;2.07;;;16.70;99.90;;;;;;4991634;28;20641;-58
2023/10/12 13:18:14;;;;;;;5.23;1.83;;;16.70;99.90;;;;;;4974419;28;20288;-57
2023/10/12 13:20:46;;;;;;;7.87;2.73;;;16.80;99.90;;;;;;4974054;28;20452;-57
2023/10/12 13:23:18;;;;;;;11.17;2.57;;;16.80;99.90;;;;;;4991581;28;20360;-57
2023/10/12 13:25:44;;;;;;;8.40;2.80;;;16.80;99.90;;;;;;4992128;28;20670;-56
2023/10/12 13:28:10;;;;;;;9.47;2.20;;;16.60;99.90;;;;;;4992880;28;20215;-57
2023/10/12 13:30:39;;;;;;;7.30;2.33;;;16.70;99.90;;;;;;4993018;28;20212;-57
2023/10/12 13:33:11;;;;;;;11.40;2.57;;;16.70;99.90;;;;;;4974852;28;20224;-56
2023/10/12 13:35:44;;;;;;;11.90;2.00;;;16.70;99.90;;;;;;4974966;28;20216;-55
2023/10/12 13:38:11;;;;;;;7.47;2.07;;;17.00;99.90;;;;;;4990761;28;20754;-59
2023/10/12 13:40:38;;;;;;;6.70;2.47;;;17.10;99.90;;;;;;4990323;28;20204;-57
2023/10/12 13:43:14;;;;;;;11.17;2.87;;;17.50;99.90;;;;;;4989529;28;20204;-56
2023/10/12 13:45:47;;;;;;;5.33;2.00;;;17.70;99.90;;;;;;4988201;28;20227;-56
2023/10/12 13:48:21;;;;;;;10.10;2.47;;;17.40;99.90;;;;;;4990102;28;20211;-60
2023/10/12 13:51:17;;;;;;;7.33;2.17;;;16.90;99.90;;;;;;4992737;28;20243;-58
2023/10/12 13:53:45;;;;;;;5.10;1.83;;;16.70;99.90;;;;;;4991563;28;20209;-66
2023/10/12 13:56:12;;;;;;;7.13;2.83;;;16.70;99.90;;;;;;4975044;28;20200;-63
2023/10/12 13:58:39;;;;;;;8.23;2.43;;;16.70;99.90;;;;;;4974212;28;20202;-57
2023/10/12 14:01:13;;;;;;;9.33;2.07;;;16.70;99.90;;;;;;4993592;28;20280;-67
2023/10/12 14:03:41;;;;;;;6.13;2.33;;;16.70;99.90;;;;;;4989749;28;20294;-56
2023/10/12 14:06:07;;;;;;;10.70;2.40;;;16.70;99.90;;;;;;4973880;28;20505;-57
2023/10/12 14:08:36;;;;;;;8.90;2.43;;;16.70;99.90;;;;;;4988621;28;20195;-59
2023/10/12 14:11:03;;;;;;;8.10;2.73;;;16.60;99.90;;;;;;4973143;28;20196;-57
2023/10/12 14:13:31;;;;;;;8.30;1.97;;;16.70;99.90;;;;;;4988650;28;20229;-57
2023/10/12 14:15:57;;;;;;;6.03;1.70;;;16.60;99.90;;;;;;4993259;28;20208;-58
2023/10/12 14:18:22;;;;;;;7.77;2.30;;;16.60;99.90;;;;;;4992579;28;20251;-57
2023/10/12 14:20:49;;;;;;;9.97;2.73;;;16.70;99.90;;;;;;4991721;28;20302;-58
2023/10/12 14:23:15;;;;;;;8.83;2.50;;;16.60;99.90;;;;;;4992147;28;20195;-56
2023/10/12 14:25:43;;;;;;;8.17;2.07;;;16.40;99.90;;;;;;4989206;28;20196;-58
2023/10/12 14:28:16;;;;;;;7.80;2.40;;;16.20;99.90;;;;;;4992136;28;20200;-57
2023/10/12 14:30:42;;;;;;;6.30;1.70;;;16.50;99.90;;;;;;4991860;28;20227;-70
2023/10/12 14:33:07;;;;;;;4.57;2.10;;;16.60;99.90;;;;;;4989681;28;20229;-75
2023/10/12 14:35:35;;;;;;;12.57;3.03;;;16.70;99.90;;;;;;4974632;28;20562;-69
2023/10/12 14:38:02;;;;;;;8.13;1.67;;;16.80;99.90;;;;;;4992971;28;20193;-57
2023/10/12 14:40:31;;;;;;;7.13;2.17;;;16.70;99.90;;;;;;4992817;28;20554;-59
2023/10/12 14:42:58;;;;;;;9.37;2.60;;;16.70;99.90;;;;;;4991568;28;20207;-57
2023/10/12 14:45:24;;;;;;;6.07;1.73;;;16.80;99.90;;;;;;5031622;23;20611;-57
2023/10/12 14:47:51;;;;;;;6.40;1.87;;;16.60;99.90;;;;;;5003685;28;20283;-57